HESH METAR and TAF | Updated Today

HESH METAR

Sharm El Sheikh International Airport

Observation time: 70 min. ago

HESH 051900Z 19004KT CAVOK 19/04 Q1012 NOSIG

Need help? Read our tutorial on how to read METARs or read the parsed version below.

Sharm El Sheikh International Airport (HESH) METAR

  • Weather conditions on Sun, 05 Feb 2023 19:00:00 +0000 (70 min. ago):
  • Present conditions: Dry
  • Clouds: Clear skies
  • Visibility: Greater than 10 km
  • Wind: 190 degrees at 4 knots
  • Temperature: 19 celsius
  • Dew point: 4 celsius
  • Pressure: 1012 millibars
  • Remarks: None


Useful to know...

  • Codes: HESH/SSH
  • Airport elevation: 143ft
  • Municipality: Sharm el-Sheikh
  • Country: Egypt
  • Continent: Asia
  • Wikipedia page

HESH TAF

Sharm El Sheikh International Airport

TAF HESH 051700Z 0518/0624 16010KT CAVOK BECMG 0609/0611 28015G25KT
Observation time: 3:10 hr. ago
Need help? Read our tutorial on how to read TAFs or read the parsed version below.

Parsed version of TAF for Sharm El Sheikh International Airport (HESH)

  • From 05 February at 18:00 UTC, to day 06 of the month at 24:00 UTC
  • Visibility: Greater than 10 km
  • Wind: 160 degrees at 10
  • Expected to arise soon, from 06 February at 09:00 UTC, to day 06 of the month at 11:00 UTC
  • Wind: 280 degrees at 15

Airports near HESH

HETR Weather
Region:

El Tor Airport

Not found in our database